PWSweather.com
Personal Weather Stations
Station Observations
EI4HQ
Cork Harbour, CobhIE

Cork HarbourCobhIE

Lat: 51.85, Lon: -8.29

Elevation: 252

Station Type: Davis Vantage Pro2

http://www.corkharbourweather.ie

Latest ConditionsUpdated 9:57:01 AM GMT Sunday, Sep 23, 2018
Currently Today's Max Today's Min Today's Average
Temperature 51.6°F10.9°C 51.6°F10.9°C 45.5°F7.5°C 48.8°F9.3°C
Dew Point 44.4°F6.9°C 47.0°F8.3°C 42.8°F6.0°C 45.5°F7.5°C
Winds 12.0 mph N19.3 kmh N 14.0 mph -22.5 kmh - - 9.2 mph 14.8 kmh
Wind Gusts 22.0 mph35.4 kmh 25.0 mph40.2 kmh - -
Humidity 76% 92% 76% 88%
Pressure 30.26 in1024.7 mb 30.26 in1024.7 mb 30.00 in1015.9 mb -
Precipitation - 0.01 in0.3 mm - -
Hour Temp Dew Point Humidity Winds Wind Gusts Pressure Precip Precip Rate Daily Precip Total
09:57 AM 51.6°F10.9°C 44.4°F6.9°C 76% 12.0 mph N19.3 kmh N 22.0 mph35.4 kmh 30.26 in1024.7 mb 0.00 in0.0 mm 0.00 in0.0 mm 0.01 in0.3 mm
09:54 AM 51.6°F10.9°C 44.2°F6.8°C 76% 13.0 mph N20.9 kmh N 22.0 mph35.4 kmh 30.26 in1024.7 mb 0.00 in0.0 mm 0.00 in0.0 mm 0.01 in0.3 mm
09:51 AM 51.4°F10.8°C 44.1°F6.7°C 76% 13.0 mph N20.9 kmh N 22.0 mph35.4 kmh 30.26 in1024.7 mb 0.00 in0.0 mm 0.00 in0.0 mm 0.01 in0.3 mm
09:48 AM 51.4°F10.8°C 44.1°F6.7°C 76% 13.0 mph NNW20.9 kmh NNW 20.0 mph32.2 kmh 30.25 in1024.4 mb 0.00 in0.0 mm 0.00 in0.0 mm 0.01 in0.3 mm
09:45 AM 51.4°F10.8°C 44.1°F6.7°C 76% 14.0 mph N22.5 kmh N 25.0 mph40.2 kmh 30.25 in1024.4 mb 0.00 in0.0 mm 0.00 in0.0 mm 0.01 in0.3 mm
09:42 AM 51.4°F10.8°C 44.2°F6.8°C 76% 14.0 mph N22.5 kmh N 25.0 mph40.2 kmh 30.25 in1024.4 mb 0.00 in0.0 mm 0.00 in0.0 mm 0.01 in0.3 mm
09:39 AM 51.4°F10.8°C 44.2°F6.8°C 76% 13.0 mph N20.9 kmh N 21.0 mph33.8 kmh 30.25 in1024.4 mb 0.00 in0.0 mm 0.00 in0.0 mm 0.01 in0.3 mm
09:36 AM 51.4°F10.8°C 44.2°F6.8°C 76% 13.0 mph N20.9 kmh N 21.0 mph33.8 kmh 30.25 in1024.4 mb 0.00 in0.0 mm 0.00 in0.0 mm 0.01 in0.3 mm
09:33 AM 51.4°F10.8°C 44.6°F7.0°C 77% 13.0 mph N20.9 kmh N 21.0 mph33.8 kmh 30.25 in1024.4 mb 0.00 in0.0 mm 0.00 in0.0 mm 0.01 in0.3 mm
09:30 AM 51.4°F10.8°C 44.1°F6.7°C 76% 13.0 mph N20.9 kmh N 21.0 mph33.8 kmh 30.25 in1024.4 mb 0.00 in0.0 mm 0.00 in0.0 mm 0.01 in0.3 mm
09:27 AM 51.4°F10.8°C 44.4°F6.9°C 77% 12.0 mph N19.3 kmh N 21.0 mph33.8 kmh 30.25 in1024.4 mb 0.00 in0.0 mm 0.00 in0.0 mm 0.01 in0.3 mm
09:24 AM 51.4°F10.8°C 44.8°F7.1°C 78% 11.0 mph N17.7 kmh N 21.0 mph33.8 kmh 30.25 in1024.4 mb 0.00 in0.0 mm 0.00 in0.0 mm 0.01 in0.3 mm
09:21 AM 51.3°F10.7°C 45.0°F7.2°C 79% 10.0 mph N16.1 kmh N 15.0 mph24.1 kmh 30.25 in1024.4 mb 0.00 in0.0 mm 0.00 in0.0 mm 0.01 in0.3 mm
09:18 AM 51.1°F10.6°C 44.8°F7.1°C 79% 9.0 mph N14.5 kmh N 15.0 mph24.1 kmh 30.24 in1024.0 mb 0.00 in0.0 mm 0.00 in0.0 mm 0.01 in0.3 mm
09:15 AM 50.9°F10.5°C 44.6°F7.0°C 79% 9.0 mph N14.5 kmh N 15.0 mph24.1 kmh 30.24 in1024.0 mb 0.00 in0.0 mm 0.00 in0.0 mm 0.01 in0.3 mm
09:12 AM 50.7°F10.4°C 44.8°F7.1°C 80% 9.0 mph N14.5 kmh N 15.0 mph24.1 kmh 30.24 in1024.0 mb 0.00 in0.0 mm 0.00 in0.0 mm 0.01 in0.3 mm
09:09 AM 50.7°F10.4°C 44.8°F7.1°C 80% 8.0 mph N12.9 kmh N 14.0 mph22.5 kmh 30.24 in1024.0 mb 0.00 in0.0 mm 0.00 in0.0 mm 0.01 in0.3 mm
09:06 AM 50.5°F10.3°C 44.6°F7.0°C 80% 9.0 mph N14.5 kmh N 14.0 mph22.5 kmh 30.24 in1024.0 mb 0.00 in0.0 mm 0.00 in0.0 mm 0.01 in0.3 mm
09:03 AM 50.4°F10.2°C 44.8°F7.1°C 81% 10.0 mph N16.1 kmh N 14.0 mph22.5 kmh 30.24 in1024.0 mb 0.00 in0.0 mm 0.00 in0.0 mm 0.01 in0.3 mm
09:00 AM 50.2°F10.1°C 44.2°F6.8°C 80% 10.0 mph N16.1 kmh N 15.0 mph24.1 kmh 30.23 in1023.7 mb 0.00 in0.0 mm 0.00 in0.0 mm 0.01 in0.3 mm
08:57 AM 50.2°F10.1°C 44.4°F6.9°C 81% 10.0 mph N16.1 kmh N 16.0 mph25.7 kmh 30.23 in1023.7 mb 0.00 in0.0 mm 0.00 in0.0 mm 0.01 in0.3 mm
08:54 AM 49.8°F9.9°C 44.2°F6.8°C 81% 10.0 mph N16.1 kmh N 18.0 mph29.0 kmh 30.23 in1023.7 mb 0.00 in0.0 mm 0.00 in0.0 mm 0.01 in0.3 mm
08:51 AM 49.8°F9.9°C 44.2°F6.8°C 81% 10.0 mph N16.1 kmh N 18.0 mph29.0 kmh 30.23 in1023.7 mb 0.00 in0.0 mm 0.00 in0.0 mm 0.01 in0.3 mm
08:48 AM 49.8°F9.9°C 44.2°F6.8°C 81% 11.0 mph N17.7 kmh N 18.0 mph29.0 kmh 30.23 in1023.7 mb 0.00 in0.0 mm 0.00 in0.0 mm 0.01 in0.3 mm
08:45 AM 49.6°F9.8°C 44.2°F6.8°C 82% 12.0 mph NNW19.3 kmh NNW 20.0 mph32.2 kmh 30.22 in1023.4 mb 0.00 in0.0 mm 0.00 in0.0 mm 0.01 in0.3 mm
08:42 AM 49.3°F9.6°C 44.1°F6.7°C 82% 13.0 mph NNW20.9 kmh NNW 20.0 mph32.2 kmh 30.22 in1023.4 mb 0.00 in0.0 mm 0.00 in0.0 mm 0.01 in0.3 mm
08:39 AM 49.1°F9.5°C 44.2°F6.8°C 83% 13.0 mph NNW20.9 kmh NNW 20.0 mph32.2 kmh 30.22 in1023.4 mb 0.00 in0.0 mm 0.00 in0.0 mm 0.01 in0.3 mm
08:36 AM 48.9°F9.4°C 44.1°F6.7°C 83% 12.0 mph NNW19.3 kmh NNW 19.0 mph30.6 kmh 30.22 in1023.4 mb 0.00 in0.0 mm 0.00 in0.0 mm 0.01 in0.3 mm
08:33 AM 48.9°F9.4°C 43.9°F6.6°C 83% 11.0 mph NNW17.7 kmh NNW 19.0 mph30.6 kmh 30.21 in1023.0 mb 0.00 in0.0 mm 0.00 in0.0 mm 0.01 in0.3 mm
08:30 AM 48.7°F9.3°C 44.4°F6.9°C 85% 10.0 mph NNW16.1 kmh NNW 18.0 mph29.0 kmh 30.21 in1023.0 mb 0.00 in0.0 mm 0.00 in0.0 mm 0.01 in0.3 mm
08:27 AM 48.6°F9.2°C 44.2°F6.8°C 85% 10.0 mph NNW16.1 kmh NNW 18.0 mph29.0 kmh 30.21 in1023.0 mb 0.00 in0.0 mm 0.00 in0.0 mm 0.01 in0.3 mm
08:24 AM 48.6°F9.2°C 44.4°F6.9°C 86% 10.0 mph NNW16.1 kmh NNW 18.0 mph29.0 kmh 30.21 in1023.0 mb 0.00 in0.0 mm 0.00 in0.0 mm 0.01 in0.3 mm
08:21 AM 48.4°F9.1°C 44.6°F7.0°C 87% 9.0 mph NNW14.5 kmh NNW 18.0 mph29.0 kmh 30.21 in1023.0 mb 0.00 in0.0 mm 0.00 in0.0 mm 0.01 in0.3 mm
08:18 AM 48.0°F8.9°C 44.4°F6.9°C 87% 8.0 mph NNW12.9 kmh NNW 13.0 mph20.9 kmh 30.21 in1023.0 mb 0.00 in0.0 mm 0.00 in0.0 mm 0.01 in0.3 mm
08:15 AM 47.8°F8.8°C 44.6°F7.0°C 88% 8.0 mph NNW12.9 kmh NNW 13.0 mph20.9 kmh 30.21 in1023.0 mb 0.00 in0.0 mm 0.00 in0.0 mm 0.01 in0.3 mm
08:12 AM 47.7°F8.7°C 44.2°F6.8°C 88% 9.0 mph NNW14.5 kmh NNW 13.0 mph20.9 kmh 30.21 in1023.0 mb 0.00 in0.0 mm 0.00 in0.0 mm 0.01 in0.3 mm
08:09 AM 47.3°F8.5°C 43.9°F6.6°C 88% 9.0 mph NNW14.5 kmh NNW 14.0 mph22.5 kmh 30.20 in1022.7 mb 0.00 in0.0 mm 0.00 in0.0 mm 0.01 in0.3 mm
08:06 AM 47.1°F8.4°C 44.1°F6.7°C 89% 8.0 mph NNW12.9 kmh NNW 14.0 mph22.5 kmh 30.20 in1022.7 mb 0.00 in0.0 mm 0.00 in0.0 mm 0.01 in0.3 mm
08:03 AM 46.9°F8.3°C 43.9°F6.6°C 89% 8.0 mph NNW12.9 kmh NNW 14.0 mph22.5 kmh 30.20 in1022.7 mb 0.00 in0.0 mm 0.00 in0.0 mm 0.01 in0.3 mm
08:00 AM 46.8°F8.2°C 43.7°F6.5°C 89% 7.0 mph NNW11.3 kmh NNW 14.0 mph22.5 kmh 30.20 in1022.7 mb 0.00 in0.0 mm 0.00 in0.0 mm 0.01 in0.3 mm
07:57 AM 46.8°F8.2°C 43.9°F6.6°C 90% 6.0 mph NNW9.7 kmh NNW 12.0 mph19.3 kmh 30.20 in1022.7 mb 0.00 in0.0 mm 0.00 in0.0 mm 0.01 in0.3 mm
07:54 AM 46.6°F8.1°C 43.7°F6.5°C 90% 6.0 mph NNW9.7 kmh NNW 11.0 mph17.7 kmh 30.20 in1022.7 mb 0.00 in0.0 mm 0.00 in0.0 mm 0.01 in0.3 mm
07:51 AM 46.4°F8.0°C 43.7°F6.5°C 90% 6.0 mph NNW9.7 kmh NNW 11.0 mph17.7 kmh 30.20 in1022.7 mb 0.00 in0.0 mm 0.00 in0.0 mm 0.01 in0.3 mm
07:48 AM 46.2°F7.9°C 43.5°F6.4°C 90% 5.0 mph NNW8.0 kmh NNW 11.0 mph17.7 kmh 30.20 in1022.7 mb 0.00 in0.0 mm 0.00 in0.0 mm 0.01 in0.3 mm
07:45 AM 46.0°F7.8°C 43.3°F6.3°C 90% 6.0 mph NNW9.7 kmh NNW 12.0 mph19.3 kmh 30.20 in1022.7 mb 0.00 in0.0 mm 0.00 in0.0 mm 0.01 in0.3 mm
07:42 AM 46.0°F7.8°C 43.2°F6.2°C 90% 6.0 mph NNW9.7 kmh NNW 13.0 mph20.9 kmh 30.19 in1022.4 mb 0.00 in0.0 mm 0.00 in0.0 mm 0.01 in0.3 mm
07:39 AM 45.9°F7.7°C 43.2°F6.2°C 90% 6.0 mph NNW9.7 kmh NNW 13.0 mph20.9 kmh 30.19 in1022.4 mb 0.00 in0.0 mm 0.00 in0.0 mm 0.01 in0.3 mm
07:36 AM 45.9°F7.7°C 43.2°F6.2°C 90% 7.0 mph NNW11.3 kmh NNW 13.0 mph20.9 kmh 30.19 in1022.4 mb 0.00 in0.0 mm 0.00 in0.0 mm 0.01 in0.3 mm
07:33 AM 45.9°F7.7°C 43.2°F6.2°C 90% 6.0 mph NNW9.7 kmh NNW 13.0 mph20.9 kmh 30.19 in1022.4 mb 0.00 in0.0 mm 0.00 in0.0 mm 0.01 in0.3 mm
07:30 AM 45.9°F7.7°C 43.0°F6.1°C 90% 6.0 mph NNW9.7 kmh NNW 13.0 mph20.9 kmh 30.19 in1022.4 mb 0.00 in0.0 mm 0.00 in0.0 mm 0.01 in0.3 mm
07:27 AM 45.7°F7.6°C 43.0°F6.1°C 90% 6.0 mph NNW9.7 kmh NNW 13.0 mph20.9 kmh 30.19 in1022.4 mb 0.00 in0.0 mm 0.00 in0.0 mm 0.01 in0.3 mm
07:24 AM 45.7°F7.6°C 42.8°F6.0°C 90% 7.0 mph NNW11.3 kmh NNW 13.0 mph20.9 kmh 30.19 in1022.4 mb 0.00 in0.0 mm 0.00 in0.0 mm 0.01 in0.3 mm
07:21 AM 45.5°F7.5°C 42.8°F6.0°C 90% 7.0 mph NNW11.3 kmh NNW 13.0 mph20.9 kmh 30.18 in1022.0 mb 0.00 in0.0 mm 0.00 in0.0 mm 0.01 in0.3 mm
07:18 AM 45.5°F7.5°C 42.8°F6.0°C 90% 7.0 mph NNW11.3 kmh NNW 13.0 mph20.9 kmh 30.18 in1022.0 mb 0.00 in0.0 mm 0.00 in0.0 mm 0.01 in0.3 mm
07:15 AM 45.7°F7.6°C 42.8°F6.0°C 90% 7.0 mph NNW11.3 kmh NNW 13.0 mph20.9 kmh 30.18 in1022.0 mb 0.00 in0.0 mm 0.00 in0.0 mm 0.01 in0.3 mm
07:12 AM 45.7°F7.6°C 43.0°F6.1°C 90% 8.0 mph NNW12.9 kmh NNW 15.0 mph24.1 kmh 30.17 in1021.7 mb 0.00 in0.0 mm 0.00 in0.0 mm 0.01 in0.3 mm
07:09 AM 45.9°F7.7°C 43.0°F6.1°C 90% 9.0 mph NNW14.5 kmh NNW 15.0 mph24.1 kmh 30.17 in1021.7 mb 0.00 in0.0 mm 0.00 in0.0 mm 0.01 in0.3 mm
07:06 AM 45.9°F7.7°C 43.2°F6.2°C 90% 10.0 mph NNW16.1 kmh NNW 16.0 mph25.7 kmh 30.17 in1021.7 mb 0.00 in0.0 mm 0.00 in0.0 mm 0.01 in0.3 mm
07:03 AM 46.0°F7.8°C 43.2°F6.2°C 90% 11.0 mph NNW17.7 kmh NNW 18.0 mph29.0 kmh 30.16 in1021.3 mb 0.00 in0.0 mm 0.00 in0.0 mm 0.01 in0.3 mm
07:00 AM 46.0°F7.8°C 43.5°F6.4°C 91% 12.0 mph NNW19.3 kmh NNW 18.0 mph29.0 kmh 30.16 in1021.3 mb 0.00 in0.0 mm 0.00 in0.0 mm 0.01 in0.3 mm
06:57 AM 46.0°F7.8°C 43.5°F6.4°C 91% 11.0 mph NNW17.7 kmh NNW 18.0 mph29.0 kmh 30.16 in1021.3 mb 0.00 in0.0 mm 0.00 in0.0 mm 0.01 in0.3 mm
06:54 AM 46.0°F7.8°C 43.7°F6.5°C 91% 11.0 mph NNW17.7 kmh NNW 18.0 mph29.0 kmh 30.16 in1021.3 mb 0.00 in0.0 mm 0.00 in0.0 mm 0.01 in0.3 mm
06:51 AM 46.0°F7.8°C 43.7°F6.5°C 91% 9.0 mph NNW14.5 kmh NNW 17.0 mph27.4 kmh 30.15 in1021.0 mb 0.00 in0.0 mm 0.00 in0.0 mm 0.01 in0.3 mm
06:48 AM 46.2°F7.9°C 44.1°F6.7°C 92% 7.0 mph NNW11.3 kmh NNW 15.0 mph24.1 kmh 30.15 in1021.0 mb 0.00 in0.0 mm 0.00 in0.0 mm 0.01 in0.3 mm
06:45 AM 46.2°F7.9°C 43.7°F6.5°C 91% 6.0 mph NNW9.7 kmh NNW 13.0 mph20.9 kmh 30.15 in1021.0 mb 0.00 in0.0 mm 0.00 in0.0 mm 0.01 in0.3 mm
06:42 AM 46.2°F7.9°C 43.9°F6.6°C 91% 5.0 mph NNW8.0 kmh NNW 11.0 mph17.7 kmh 30.15 in1021.0 mb 0.00 in0.0 mm 0.00 in0.0 mm 0.01 in0.3 mm
06:39 AM 46.2°F7.9°C 43.9°F6.6°C 91% 5.0 mph NNW8.0 kmh NNW 11.0 mph17.7 kmh 30.15 in1021.0 mb 0.00 in0.0 mm 0.00 in0.0 mm 0.01 in0.3 mm
06:36 AM 46.4°F8.0°C 43.9°F6.6°C 91% 6.0 mph NNW9.7 kmh NNW 11.0 mph17.7 kmh 30.15 in1021.0 mb 0.00 in0.0 mm 0.00 in0.0 mm 0.01 in0.3 mm
06:33 AM 46.6°F8.1°C 44.1°F6.7°C 91% 6.0 mph NNW9.7 kmh NNW 11.0 mph17.7 kmh 30.15 in1021.0 mb 0.00 in0.0 mm 0.00 in0.0 mm 0.01 in0.3 mm
06:30 AM 46.8°F8.2°C 44.2°F6.8°C 91% 6.0 mph NNW9.7 kmh NNW 11.0 mph17.7 kmh 30.15 in1021.0 mb 0.00 in0.0 mm 0.00 in0.0 mm 0.01 in0.3 mm
06:27 AM 46.8°F8.2°C 44.2°F6.8°C 91% 6.0 mph NNW9.7 kmh NNW 11.0 mph17.7 kmh 30.15 in1021.0 mb 0.00 in0.0 mm 0.00 in0.0 mm 0.01 in0.3 mm
06:24 AM 46.8°F8.2°C 44.2°F6.8°C 91% 7.0 mph NNW11.3 kmh NNW 13.0 mph20.9 kmh 30.14 in1020.7 mb 0.00 in0.0 mm 0.00 in0.0 mm 0.01 in0.3 mm
06:21 AM 46.9°F8.3°C 44.4°F6.9°C 91% 7.0 mph NNW11.3 kmh NNW 14.0 mph22.5 kmh 30.14 in1020.7 mb 0.00 in0.0 mm 0.00 in0.0 mm 0.01 in0.3 mm
06:18 AM 46.9°F8.3°C 44.4°F6.9°C 91% 8.0 mph NNW12.9 kmh NNW 14.0 mph22.5 kmh 30.14 in1020.7 mb 0.00 in0.0 mm 0.00 in0.0 mm 0.01 in0.3 mm
06:15 AM 46.9°F8.3°C 44.8°F7.1°C 92% 8.0 mph NNW12.9 kmh NNW 14.0 mph22.5 kmh 30.14 in1020.7 mb 0.00 in0.0 mm 0.00 in0.0 mm 0.01 in0.3 mm
06:12 AM 47.1°F8.4°C 44.6°F7.0°C 91% 8.0 mph NNW12.9 kmh NNW 12.0 mph19.3 kmh 30.14 in1020.7 mb 0.00 in0.0 mm 0.00 in0.0 mm 0.01 in0.3 mm
06:09 AM 47.1°F8.4°C 44.6°F7.0°C 91% 9.0 mph NNW14.5 kmh NNW 15.0 mph24.1 kmh 30.13 in1020.3 mb 0.00 in0.0 mm 0.00 in0.0 mm 0.01 in0.3 mm
06:06 AM 47.1°F8.4°C 44.6°F7.0°C 91% 9.0 mph NNW14.5 kmh NNW 15.0 mph24.1 kmh 30.13 in1020.3 mb 0.00 in0.0 mm 0.00 in0.0 mm 0.01 in0.3 mm
06:03 AM 47.1°F8.4°C 44.6°F7.0°C 91% 9.0 mph NNW14.5 kmh NNW 15.0 mph24.1 kmh 30.13 in1020.3 mb 0.00 in0.0 mm 0.00 in0.0 mm 0.01 in0.3 mm
06:00 AM 47.1°F8.4°C 44.8°F7.1°C 91% 9.0 mph NNW14.5 kmh NNW 13.0 mph20.9 kmh 30.13 in1020.3 mb 0.00 in0.0 mm 0.00 in0.0 mm 0.01 in0.3 mm
05:57 AM 47.1°F8.4°C 44.8°F7.1°C 91% 9.0 mph NNW14.5 kmh NNW 14.0 mph22.5 kmh 30.13 in1020.3 mb 0.00 in0.0 mm 0.00 in0.0 mm 0.01 in0.3 mm
05:54 AM 47.3°F8.5°C 44.8°F7.1°C 91% 9.0 mph NNW14.5 kmh NNW 14.0 mph22.5 kmh 30.12 in1020.0 mb 0.00 in0.0 mm 0.00 in0.0 mm 0.01 in0.3 mm
05:51 AM 47.3°F8.5°C 44.8°F7.1°C 91% 9.0 mph NNW14.5 kmh NNW 14.0 mph22.5 kmh 30.12 in1020.0 mb 0.00 in0.0 mm 0.00 in0.0 mm 0.01 in0.3 mm
05:48 AM 47.5°F8.6°C 45.0°F7.2°C 91% 9.0 mph NNW14.5 kmh NNW 14.0 mph22.5 kmh 30.11 in1019.6 mb 0.00 in0.0 mm 0.00 in0.0 mm 0.01 in0.3 mm
05:45 AM 47.5°F8.6°C 45.0°F7.2°C 91% 9.0 mph N14.5 kmh N 14.0 mph22.5 kmh 30.11 in1019.6 mb 0.00 in0.0 mm 0.00 in0.0 mm 0.01 in0.3 mm
05:42 AM 47.5°F8.6°C 45.0°F7.2°C 91% 9.0 mph N14.5 kmh N 13.0 mph20.9 kmh 30.11 in1019.6 mb 0.00 in0.0 mm 0.00 in0.0 mm 0.01 in0.3 mm
05:39 AM 47.5°F8.6°C 45.0°F7.2°C 91% 8.0 mph N12.9 kmh N 13.0 mph20.9 kmh 30.10 in1019.3 mb 0.00 in0.0 mm 0.00 in0.0 mm 0.01 in0.3 mm
05:36 AM 47.7°F8.7°C 45.1°F7.3°C 91% 8.0 mph N12.9 kmh N 13.0 mph20.9 kmh 30.11 in1019.6 mb 0.00 in0.0 mm 0.00 in0.0 mm 0.01 in0.3 mm
05:33 AM 47.7°F8.7°C 45.1°F7.3°C 91% 7.0 mph N11.3 kmh N 12.0 mph19.3 kmh 30.11 in1019.6 mb 0.00 in0.0 mm 0.00 in0.0 mm 0.01 in0.3 mm
05:30 AM 47.7°F8.7°C 45.1°F7.3°C 91% 7.0 mph N11.3 kmh N 11.0 mph17.7 kmh 30.10 in1019.3 mb 0.00 in0.0 mm 0.00 in0.0 mm 0.01 in0.3 mm
05:27 AM 47.7°F8.7°C 45.0°F7.2°C 90% 6.0 mph N9.7 kmh N 11.0 mph17.7 kmh 30.10 in1019.3 mb 0.01 in0.3 mm 0.00 in0.0 mm 0.01 in0.3 mm
05:24 AM 47.7°F8.7°C 45.1°F7.3°C 91% 6.0 mph N9.7 kmh N 10.0 mph16.1 kmh 30.10 in1019.3 mb 0.01 in0.3 mm 0.00 in0.0 mm 0.01 in0.3 mm
05:21 AM 47.7°F8.7°C 45.0°F7.2°C 90% 5.0 mph N8.0 kmh N 10.0 mph16.1 kmh 30.10 in1019.3 mb 0.01 in0.3 mm 0.00 in0.0 mm 0.01 in0.3 mm
05:18 AM 47.8°F8.8°C 45.0°F7.2°C 90% 5.0 mph N8.0 kmh N 10.0 mph16.1 kmh 30.10 in1019.3 mb 0.01 in0.3 mm 0.00 in0.0 mm 0.01 in0.3 mm
05:15 AM 47.8°F8.8°C 45.1°F7.3°C 90% 4.0 mph N6.4 kmh N 10.0 mph16.1 kmh 30.09 in1019.0 mb 0.01 in0.3 mm 0.00 in0.0 mm 0.01 in0.3 mm
05:12 AM 48.0°F8.9°C 45.1°F7.3°C 90% 3.0 mph N4.8 kmh N 6.0 mph9.7 kmh 30.09 in1019.0 mb 0.01 in0.3 mm 0.00 in0.0 mm 0.01 in0.3 mm
05:09 AM 48.0°F8.9°C 45.3°F7.4°C 90% 2.0 mph N3.2 kmh N 5.0 mph8.0 kmh 30.09 in1019.0 mb 0.01 in0.3 mm 0.00 in0.0 mm 0.01 in0.3 mm
05:06 AM 48.2°F9.0°C 45.3°F7.4°C 90% 3.0 mph N4.8 kmh N 6.0 mph9.7 kmh 30.09 in1019.0 mb 0.01 in0.3 mm 0.00 in0.0 mm 0.01 in0.3 mm
05:03 AM 48.2°F9.0°C 45.3°F7.4°C 90% 3.0 mph N4.8 kmh N 8.0 mph12.9 kmh 30.08 in1018.6 mb 0.01 in0.3 mm 0.00 in0.0 mm 0.01 in0.3 mm
05:00 AM 48.4°F9.1°C 45.5°F7.5°C 90% 4.0 mph N6.4 kmh N 8.0 mph12.9 kmh 30.08 in1018.6 mb 0.01 in0.3 mm 0.00 in0.0 mm 0.01 in0.3 mm
04:57 AM 48.4°F9.1°C 45.5°F7.5°C 90% 4.0 mph N6.4 kmh N 9.0 mph14.5 kmh 30.08 in1018.6 mb 0.01 in0.3 mm 0.00 in0.0 mm 0.01 in0.3 mm
04:54 AM 48.4°F9.1°C 45.3°F7.4°C 89% 5.0 mph N8.0 kmh N 11.0 mph17.7 kmh 30.08 in1018.6 mb 0.01 in0.3 mm 0.00 in0.0 mm 0.01 in0.3 mm
04:51 AM 48.4°F9.1°C 45.3°F7.4°C 89% 6.0 mph N9.7 kmh N 11.0 mph17.7 kmh 30.08 in1018.6 mb 0.01 in0.3 mm 0.00 in0.0 mm 0.01 in0.3 mm
04:48 AM 48.6°F9.2°C 45.3°F7.4°C 89% 6.0 mph N9.7 kmh N 11.0 mph17.7 kmh 30.08 in1018.6 mb 0.01 in0.3 mm 0.00 in0.0 mm 0.01 in0.3 mm
04:45 AM 48.6°F9.2°C 45.3°F7.4°C 89% 6.0 mph N9.7 kmh N 12.0 mph19.3 kmh 30.08 in1018.6 mb 0.01 in0.3 mm 0.00 in0.0 mm 0.01 in0.3 mm
04:42 AM 48.6°F9.2°C 45.3°F7.4°C 89% 7.0 mph N11.3 kmh N 13.0 mph20.9 kmh 30.08 in1018.6 mb 0.01 in0.3 mm 0.00 in0.0 mm 0.01 in0.3 mm
04:39 AM 48.6°F9.2°C 45.5°F7.5°C 89% 7.0 mph N11.3 kmh N 13.0 mph20.9 kmh 30.08 in1018.6 mb 0.01 in0.3 mm 0.00 in0.0 mm 0.01 in0.3 mm
04:36 AM 48.6°F9.2°C 45.5°F7.5°C 89% 8.0 mph N12.9 kmh N 13.0 mph20.9 kmh 30.08 in1018.6 mb 0.01 in0.3 mm 0.00 in0.0 mm 0.01 in0.3 mm
04:33 AM 48.6°F9.2°C 45.5°F7.5°C 89% 8.0 mph N12.9 kmh N 14.0 mph22.5 kmh 30.08 in1018.6 mb 0.01 in0.3 mm 0.00 in0.0 mm 0.01 in0.3 mm
04:30 AM 48.6°F9.2°C 45.9°F7.7°C 90% 10.0 mph N16.1 kmh N 19.0 mph30.6 kmh 30.07 in1018.3 mb 0.01 in0.3 mm 0.20 in5.1 mm 0.01 in0.3 mm
04:27 AM 48.6°F9.2°C 45.9°F7.7°C 90% 10.0 mph N16.1 kmh N 19.0 mph30.6 kmh 30.07 in1018.3 mb 0.00 in0.0 mm 0.00 in0.0 mm 0.00 in0.0 mm
04:24 AM 48.6°F9.2°C 45.9°F7.7°C 90% 10.0 mph N16.1 kmh N 19.0 mph30.6 kmh 30.07 in1018.3 mb 0.00 in0.0 mm 0.00 in0.0 mm 0.00 in0.0 mm
04:21 AM 48.6°F9.2°C 45.9°F7.7°C 90% 10.0 mph N16.1 kmh N 19.0 mph30.6 kmh 30.07 in1018.3 mb 0.00 in0.0 mm 0.00 in0.0 mm 0.00 in0.0 mm
04:18 AM 48.7°F9.3°C 45.9°F7.7°C 90% 9.0 mph N14.5 kmh N 16.0 mph25.7 kmh 30.07 in1018.3 mb 0.00 in0.0 mm 0.00 in0.0 mm 0.00 in0.0 mm
04:15 AM 48.7°F9.3°C 45.9°F7.7°C 90% 9.0 mph N14.5 kmh N 15.0 mph24.1 kmh 30.07 in1018.3 mb 0.00 in0.0 mm 0.00 in0.0 mm 0.00 in0.0 mm
04:12 AM 48.7°F9.3°C 46.0°F7.8°C 90% 9.0 mph N14.5 kmh N 15.0 mph24.1 kmh 30.06 in1017.9 mb 0.00 in0.0 mm 0.00 in0.0 mm 0.00 in0.0 mm
04:09 AM 48.7°F9.3°C 46.0°F7.8°C 90% 10.0 mph N16.1 kmh N 15.0 mph24.1 kmh 30.06 in1017.9 mb 0.00 in0.0 mm 0.00 in0.0 mm 0.00 in0.0 mm
04:06 AM 48.9°F9.4°C 46.0°F7.8°C 90% 10.0 mph N16.1 kmh N 19.0 mph30.6 kmh 30.06 in1017.9 mb 0.00 in0.0 mm 0.00 in0.0 mm 0.00 in0.0 mm
04:03 AM 48.9°F9.4°C 46.0°F7.8°C 90% 11.0 mph N17.7 kmh N 19.0 mph30.6 kmh 30.06 in1017.9 mb 0.00 in0.0 mm 0.00 in0.0 mm 0.00 in0.0 mm
04:00 AM 48.9°F9.4°C 46.0°F7.8°C 90% 11.0 mph N17.7 kmh N 19.0 mph30.6 kmh 30.06 in1017.9 mb 0.00 in0.0 mm 0.00 in0.0 mm 0.00 in0.0 mm
03:57 AM 48.9°F9.4°C 46.2°F7.9°C 90% 11.0 mph N17.7 kmh N 19.0 mph30.6 kmh 30.06 in1017.9 mb 0.00 in0.0 mm 0.00 in0.0 mm 0.00 in0.0 mm
03:54 AM 48.9°F9.4°C 46.2°F7.9°C 90% 11.0 mph N17.7 kmh N 17.0 mph27.4 kmh 30.06 in1017.9 mb 0.00 in0.0 mm 0.00 in0.0 mm 0.00 in0.0 mm
03:51 AM 48.9°F9.4°C 46.2°F7.9°C 90% 10.0 mph N16.1 kmh N 16.0 mph25.7 kmh 30.06 in1017.9 mb 0.00 in0.0 mm 0.00 in0.0 mm 0.00 in0.0 mm
03:48 AM 49.1°F9.5°C 46.0°F7.8°C 89% 9.0 mph N14.5 kmh N 15.0 mph24.1 kmh 30.06 in1017.9 mb 0.00 in0.0 mm 0.00 in0.0 mm 0.00 in0.0 mm
03:45 AM 49.1°F9.5°C 46.0°F7.8°C 89% 8.0 mph N12.9 kmh N 15.0 mph24.1 kmh 30.06 in1017.9 mb 0.00 in0.0 mm 0.00 in0.0 mm 0.00 in0.0 mm
03:42 AM 49.1°F9.5°C 46.0°F7.8°C 89% 8.0 mph N12.9 kmh N 14.0 mph22.5 kmh 30.06 in1017.9 mb 0.00 in0.0 mm 0.00 in0.0 mm 0.00 in0.0 mm
03:39 AM 49.1°F9.5°C 46.0°F7.8°C 89% 8.0 mph N12.9 kmh N 14.0 mph22.5 kmh 30.05 in1017.6 mb 0.00 in0.0 mm 0.00 in0.0 mm 0.00 in0.0 mm
03:36 AM 49.1°F9.5°C 46.0°F7.8°C 89% 9.0 mph N14.5 kmh N 14.0 mph22.5 kmh 30.06 in1017.9 mb 0.00 in0.0 mm 0.00 in0.0 mm 0.00 in0.0 mm
03:33 AM 49.1°F9.5°C 46.0°F7.8°C 89% 9.0 mph N14.5 kmh N 14.0 mph22.5 kmh 30.05 in1017.6 mb 0.00 in0.0 mm 0.00 in0.0 mm 0.00 in0.0 mm
03:30 AM 49.1°F9.5°C 46.0°F7.8°C 89% 10.0 mph N16.1 kmh N 14.0 mph22.5 kmh 30.05 in1017.6 mb 0.00 in0.0 mm 0.00 in0.0 mm 0.00 in0.0 mm
03:27 AM 49.1°F9.5°C 46.0°F7.8°C 89% 9.0 mph N14.5 kmh N 14.0 mph22.5 kmh 30.05 in1017.6 mb 0.00 in0.0 mm 0.00 in0.0 mm 0.00 in0.0 mm
03:24 AM 49.1°F9.5°C 46.0°F7.8°C 89% 9.0 mph N14.5 kmh N 13.0 mph20.9 kmh 30.05 in1017.6 mb 0.00 in0.0 mm 0.00 in0.0 mm 0.00 in0.0 mm
03:21 AM 49.1°F9.5°C 46.0°F7.8°C 89% 9.0 mph N14.5 kmh N 13.0 mph20.9 kmh 30.05 in1017.6 mb 0.00 in0.0 mm 0.00 in0.0 mm 0.00 in0.0 mm
03:18 AM 49.1°F9.5°C 46.0°F7.8°C 89% 8.0 mph N12.9 kmh N 13.0 mph20.9 kmh 30.04 in1017.3 mb 0.00 in0.0 mm 0.00 in0.0 mm 0.00 in0.0 mm
03:15 AM 49.1°F9.5°C 45.7°F7.6°C 88% 8.0 mph N12.9 kmh N 13.0 mph20.9 kmh 30.05 in1017.6 mb 0.00 in0.0 mm 0.00 in0.0 mm 0.00 in0.0 mm
03:12 AM 49.3°F9.6°C 45.9°F7.7°C 88% 8.0 mph N12.9 kmh N 12.0 mph19.3 kmh 30.04 in1017.3 mb 0.00 in0.0 mm 0.00 in0.0 mm 0.00 in0.0 mm
03:09 AM 49.3°F9.6°C 45.9°F7.7°C 88% 8.0 mph N12.9 kmh N 12.0 mph19.3 kmh 30.04 in1017.3 mb 0.00 in0.0 mm 0.00 in0.0 mm 0.00 in0.0 mm
03:06 AM 49.3°F9.6°C 45.9°F7.7°C 88% 8.0 mph N12.9 kmh N 11.0 mph17.7 kmh 30.04 in1017.3 mb 0.00 in0.0 mm 0.00 in0.0 mm 0.00 in0.0 mm
03:03 AM 49.3°F9.6°C 45.9°F7.7°C 88% 7.0 mph N11.3 kmh N 11.0 mph17.7 kmh 30.04 in1017.3 mb 0.00 in0.0 mm 0.00 in0.0 mm 0.00 in0.0 mm
03:00 AM 49.3°F9.6°C 45.9°F7.7°C 88% 7.0 mph N11.3 kmh N 12.0 mph19.3 kmh 30.04 in1017.3 mb 0.00 in0.0 mm 0.00 in0.0 mm 0.00 in0.0 mm
02:57 AM 49.3°F9.6°C 45.9°F7.7°C 88% 7.0 mph N11.3 kmh N 13.0 mph20.9 kmh 30.04 in1017.3 mb 0.00 in0.0 mm 0.00 in0.0 mm 0.00 in0.0 mm
02:54 AM 49.3°F9.6°C 45.9°F7.7°C 88% 8.0 mph N12.9 kmh N 16.0 mph25.7 kmh 30.04 in1017.3 mb 0.00 in0.0 mm 0.00 in0.0 mm 0.00 in0.0 mm
02:51 AM 49.3°F9.6°C 45.9°F7.7°C 88% 8.0 mph N12.9 kmh N 16.0 mph25.7 kmh 30.04 in1017.3 mb 0.00 in0.0 mm 0.00 in0.0 mm 0.00 in0.0 mm
02:48 AM 49.3°F9.6°C 45.9°F7.7°C 88% 9.0 mph N14.5 kmh N 16.0 mph25.7 kmh 30.04 in1017.3 mb 0.00 in0.0 mm 0.00 in0.0 mm 0.00 in0.0 mm
02:45 AM 49.3°F9.6°C 46.2°F7.9°C 89% 9.0 mph N14.5 kmh N 14.0 mph22.5 kmh 30.04 in1017.3 mb 0.00 in0.0 mm 0.00 in0.0 mm 0.00 in0.0 mm
02:42 AM 49.3°F9.6°C 46.0°F7.8°C 89% 9.0 mph N14.5 kmh N 14.0 mph22.5 kmh 30.04 in1017.3 mb 0.00 in0.0 mm 0.00 in0.0 mm 0.00 in0.0 mm
02:39 AM 49.3°F9.6°C 46.2°F7.9°C 89% 10.0 mph N16.1 kmh N 14.0 mph22.5 kmh 30.04 in1017.3 mb 0.00 in0.0 mm 0.00 in0.0 mm 0.00 in0.0 mm
02:36 AM 49.3°F9.6°C 46.2°F7.9°C 89% 10.0 mph N16.1 kmh N 15.0 mph24.1 kmh 30.04 in1017.3 mb 0.00 in0.0 mm 0.00 in0.0 mm 0.00 in0.0 mm
02:33 AM 49.3°F9.6°C 46.2°F7.9°C 89% 10.0 mph N16.1 kmh N 15.0 mph24.1 kmh 30.05 in1017.6 mb 0.00 in0.0 mm 0.00 in0.0 mm 0.00 in0.0 mm
02:30 AM 49.3°F9.6°C 46.2°F7.9°C 89% 10.0 mph N16.1 kmh N 15.0 mph24.1 kmh 30.04 in1017.3 mb 0.00 in0.0 mm 0.00 in0.0 mm 0.00 in0.0 mm
02:27 AM 49.3°F9.6°C 46.2°F7.9°C 89% 11.0 mph N17.7 kmh N 15.0 mph24.1 kmh 30.04 in1017.3 mb 0.00 in0.0 mm 0.00 in0.0 mm 0.00 in0.0 mm
02:24 AM 49.5°F9.7°C 46.2°F7.9°C 89% 11.0 mph N17.7 kmh N 17.0 mph27.4 kmh 30.04 in1017.3 mb 0.00 in0.0 mm 0.00 in0.0 mm 0.00 in0.0 mm
02:21 AM 49.5°F9.7°C 46.2°F7.9°C 89% 11.0 mph N17.7 kmh N 17.0 mph27.4 kmh 30.04 in1017.3 mb 0.00 in0.0 mm 0.00 in0.0 mm 0.00 in0.0 mm
02:18 AM 49.5°F9.7°C 46.2°F7.9°C 89% 11.0 mph N17.7 kmh N 17.0 mph27.4 kmh 30.03 in1016.9 mb 0.00 in0.0 mm 0.00 in0.0 mm 0.00 in0.0 mm
02:15 AM 49.3°F9.6°C 46.2°F7.9°C 89% 11.0 mph N17.7 kmh N 14.0 mph22.5 kmh 30.03 in1016.9 mb 0.00 in0.0 mm 0.00 in0.0 mm 0.00 in0.0 mm
02:12 AM 49.3°F9.6°C 46.6°F8.1°C 90% 11.0 mph N17.7 kmh N 15.0 mph24.1 kmh 30.03 in1016.9 mb 0.00 in0.0 mm 0.00 in0.0 mm 0.00 in0.0 mm
02:09 AM 49.5°F9.7°C 46.6°F8.1°C 90% 10.0 mph N16.1 kmh N 15.0 mph24.1 kmh 30.03 in1016.9 mb 0.00 in0.0 mm 0.00 in0.0 mm 0.00 in0.0 mm
02:06 AM 49.5°F9.7°C 46.6°F8.1°C 90% 10.0 mph N16.1 kmh N 15.0 mph24.1 kmh 30.03 in1016.9 mb 0.00 in0.0 mm 0.00 in0.0 mm 0.00 in0.0 mm
02:03 AM 49.3°F9.6°C 46.6°F8.1°C 90% 9.0 mph N14.5 kmh N 13.0 mph20.9 kmh 30.04 in1017.3 mb 0.00 in0.0 mm 0.00 in0.0 mm 0.00 in0.0 mm
02:00 AM 49.3°F9.6°C 46.6°F8.1°C 90% 8.0 mph N12.9 kmh N 12.0 mph19.3 kmh 30.04 in1017.3 mb 0.00 in0.0 mm 0.00 in0.0 mm 0.00 in0.0 mm
01:57 AM 49.5°F9.7°C 46.6°F8.1°C 90% 7.0 mph N11.3 kmh N 11.0 mph17.7 kmh 30.03 in1016.9 mb 0.00 in0.0 mm 0.00 in0.0 mm 0.00 in0.0 mm
01:54 AM 49.5°F9.7°C 46.6°F8.1°C 90% 7.0 mph N11.3 kmh N 11.0 mph17.7 kmh 30.03 in1016.9 mb 0.00 in0.0 mm 0.00 in0.0 mm 0.00 in0.0 mm
01:51 AM 49.3°F9.6°C 46.6°F8.1°C 90% 7.0 mph N11.3 kmh N 11.0 mph17.7 kmh 30.03 in1016.9 mb 0.00 in0.0 mm 0.00 in0.0 mm 0.00 in0.0 mm
01:48 AM 49.5°F9.7°C 46.6°F8.1°C 90% 8.0 mph N12.9 kmh N 13.0 mph20.9 kmh 30.04 in1017.3 mb 0.00 in0.0 mm 0.00 in0.0 mm 0.00 in0.0 mm
01:45 AM 49.5°F9.7°C 46.6°F8.1°C 90% 8.0 mph N12.9 kmh N 13.0 mph20.9 kmh 30.04 in1017.3 mb 0.00 in0.0 mm 0.00 in0.0 mm 0.00 in0.0 mm
01:42 AM 49.5°F9.7°C 46.6°F8.1°C 90% 9.0 mph N14.5 kmh N 13.0 mph20.9 kmh 30.04 in1017.3 mb 0.00 in0.0 mm 0.00 in0.0 mm 0.00 in0.0 mm
01:39 AM 49.5°F9.7°C 46.8°F8.2°C 90% 10.0 mph N16.1 kmh N 15.0 mph24.1 kmh 30.04 in1017.3 mb 0.00 in0.0 mm 0.00 in0.0 mm 0.00 in0.0 mm
01:36 AM 49.5°F9.7°C 46.8°F8.2°C 90% 10.0 mph N16.1 kmh N 15.0 mph24.1 kmh 30.04 in1017.3 mb 0.00 in0.0 mm 0.00 in0.0 mm 0.00 in0.0 mm
01:33 AM 49.5°F9.7°C 46.8°F8.2°C 90% 9.0 mph N14.5 kmh N 15.0 mph24.1 kmh 30.03 in1016.9 mb 0.00 in0.0 mm 0.00 in0.0 mm 0.00 in0.0 mm
01:30 AM 49.5°F9.7°C 46.8°F8.2°C 90% 10.0 mph N16.1 kmh N 13.0 mph20.9 kmh 30.04 in1017.3 mb 0.00 in0.0 mm 0.00 in0.0 mm 0.00 in0.0 mm
01:27 AM 49.5°F9.7°C 46.8°F8.2°C 90% 10.0 mph N16.1 kmh N 13.0 mph20.9 kmh 30.04 in1017.3 mb 0.00 in0.0 mm 0.00 in0.0 mm 0.00 in0.0 mm
01:24 AM 49.5°F9.7°C 46.9°F8.3°C 90% 10.0 mph N16.1 kmh N 13.0 mph20.9 kmh 30.04 in1017.3 mb 0.00 in0.0 mm 0.00 in0.0 mm 0.00 in0.0 mm
01:21 AM 49.5°F9.7°C 46.8°F8.2°C 90% 9.0 mph N14.5 kmh N 13.0 mph20.9 kmh 30.03 in1016.9 mb 0.00 in0.0 mm 0.00 in0.0 mm 0.00 in0.0 mm
01:18 AM 49.5°F9.7°C 46.8°F8.2°C 90% 9.0 mph N14.5 kmh N 13.0 mph20.9 kmh 30.03 in1016.9 mb 0.00 in0.0 mm 0.00 in0.0 mm 0.00 in0.0 mm
01:15 AM 49.5°F9.7°C 46.8°F8.2°C 90% 9.0 mph N14.5 kmh N 13.0 mph20.9 kmh 30.03 in1016.9 mb 0.00 in0.0 mm 0.00 in0.0 mm 0.00 in0.0 mm
01:12 AM 49.5°F9.7°C 46.8°F8.2°C 90% 9.0 mph N14.5 kmh N 13.0 mph20.9 kmh 30.03 in1016.9 mb 0.00 in0.0 mm 0.00 in0.0 mm 0.00 in0.0 mm
01:09 AM 49.5°F9.7°C 46.8°F8.2°C 90% 9.0 mph N14.5 kmh N 13.0 mph20.9 kmh 30.03 in1016.9 mb 0.00 in0.0 mm 0.00 in0.0 mm 0.00 in0.0 mm
01:06 AM 49.5°F9.7°C 46.8°F8.2°C 90% 9.0 mph N14.5 kmh N 13.0 mph20.9 kmh 30.03 in1016.9 mb 0.00 in0.0 mm 0.00 in0.0 mm 0.00 in0.0 mm
12:58 AM 49.5°F9.7°C 46.7°F8.2°C 90% 11.0 mph NNW17.7 kmh NNW 13.0 mph20.9 kmh 30.02 in1016.6 mb 0.00 in0.0 mm 0.00 in0.0 mm 0.00 in0.0 mm
12:57 AM 49.5°F9.7°C 46.7°F8.2°C 90% 11.0 mph NNW17.7 kmh NNW 13.0 mph20.9 kmh 30.02 in1016.6 mb 0.00 in0.0 mm 0.00 in0.0 mm 0.00 in0.0 mm
12:56 AM 49.5°F9.7°C 46.7°F8.2°C 90% 12.0 mph N19.3 kmh N 13.0 mph20.9 kmh 30.02 in1016.6 mb 0.00 in0.0 mm 0.00 in0.0 mm 0.00 in0.0 mm
12:55 AM 49.5°F9.7°C 46.7°F8.2°C 90% 12.0 mph N19.3 kmh N 13.0 mph20.9 kmh 30.02 in1016.6 mb 0.00 in0.0 mm 0.00 in0.0 mm 0.00 in0.0 mm
12:54 AM 49.5°F9.7°C 46.7°F8.2°C 90% 12.0 mph N19.3 kmh N 13.0 mph20.9 kmh 30.02 in1016.6 mb 0.00 in0.0 mm 0.00 in0.0 mm 0.00 in0.0 mm
12:53 AM 49.5°F9.7°C 46.7°F8.2°C 90% 12.0 mph N19.3 kmh N 13.0 mph20.9 kmh 30.03 in1016.9 mb 0.00 in0.0 mm 0.00 in0.0 mm 0.00 in0.0 mm
12:52 AM 49.5°F9.7°C 46.7°F8.2°C 90% 12.0 mph N19.3 kmh N 13.0 mph20.9 kmh 30.02 in1016.6 mb 0.00 in0.0 mm 0.00 in0.0 mm 0.00 in0.0 mm
12:51 AM 49.5°F9.7°C 46.7°F8.2°C 90% 12.0 mph N19.3 kmh N 13.0 mph20.9 kmh 30.02 in1016.6 mb 0.00 in0.0 mm 0.00 in0.0 mm 0.00 in0.0 mm
12:50 AM 49.5°F9.7°C 46.7°F8.2°C 90% 12.0 mph N19.3 kmh N 13.0 mph20.9 kmh 30.03 in1016.9 mb 0.00 in0.0 mm 0.00 in0.0 mm 0.00 in0.0 mm
12:49 AM 49.6°F9.8°C 46.8°F8.2°C 90% 12.0 mph N19.3 kmh N 13.0 mph20.9 kmh 30.03 in1016.9 mb 0.00 in0.0 mm 0.00 in0.0 mm 0.00 in0.0 mm
12:48 AM 49.6°F9.8°C 46.8°F8.2°C 90% 12.0 mph N19.3 kmh N 13.0 mph20.9 kmh 30.03 in1016.9 mb 0.00 in0.0 mm 0.00 in0.0 mm 0.00 in0.0 mm
12:47 AM 49.6°F9.8°C 46.8°F8.2°C 90% 12.0 mph N19.3 kmh N 13.0 mph20.9 kmh 30.03 in1016.9 mb 0.00 in0.0 mm 0.00 in0.0 mm 0.00 in0.0 mm
12:46 AM 49.6°F9.8°C 46.8°F8.2°C 90% 12.0 mph N19.3 kmh N 13.0 mph20.9 kmh 30.03 in1016.9 mb 0.00 in0.0 mm 0.00 in0.0 mm 0.00 in0.0 mm
12:45 AM 49.6°F9.8°C 46.8°F8.2°C 90% 12.0 mph N19.3 kmh N 13.0 mph20.9 kmh 30.02 in1016.6 mb 0.00 in0.0 mm 0.00 in0.0 mm 0.00 in0.0 mm
12:44 AM 49.6°F9.8°C 46.8°F8.2°C 90% 12.0 mph NNW19.3 kmh NNW 13.0 mph20.9 kmh 30.02 in1016.6 mb 0.00 in0.0 mm 0.00 in0.0 mm 0.00 in0.0 mm
12:43 AM 49.6°F9.8°C 46.8°F8.2°C 90% 12.0 mph NNW19.3 kmh NNW 13.0 mph20.9 kmh 30.02 in1016.6 mb 0.00 in0.0 mm 0.00 in0.0 mm 0.00 in0.0 mm
12:42 AM 49.6°F9.8°C 46.8°F8.2°C 90% 12.0 mph NNW19.3 kmh NNW 13.0 mph20.9 kmh 30.02 in1016.6 mb 0.00 in0.0 mm 0.00 in0.0 mm 0.00 in0.0 mm
12:41 AM 49.6°F9.8°C 46.8°F8.2°C 90% 12.0 mph NNW19.3 kmh NNW 13.0 mph20.9 kmh 30.02 in1016.6 mb 0.00 in0.0 mm 0.00 in0.0 mm 0.00 in0.0 mm
12:40 AM 49.6°F9.8°C 46.8°F8.2°C 90% 11.0 mph NNW17.7 kmh NNW 12.0 mph19.3 kmh 30.02 in1016.6 mb 0.00 in0.0 mm 0.00 in0.0 mm 0.00 in0.0 mm
12:39 AM 49.6°F9.8°C 46.8°F8.2°C 90% 11.0 mph NNW17.7 kmh NNW 12.0 mph19.3 kmh 30.03 in1016.9 mb 0.00 in0.0 mm 0.00 in0.0 mm 0.00 in0.0 mm
12:38 AM 49.7°F9.8°C 46.9°F8.3°C 90% 11.0 mph NNW17.7 kmh NNW 12.0 mph19.3 kmh 30.02 in1016.6 mb 0.00 in0.0 mm 0.00 in0.0 mm 0.00 in0.0 mm
12:37 AM 49.7°F9.8°C 46.9°F8.3°C 90% 11.0 mph NNW17.7 kmh NNW 12.0 mph19.3 kmh 30.02 in1016.6 mb 0.00 in0.0 mm 0.00 in0.0 mm 0.00 in0.0 mm
12:36 AM 49.7°F9.8°C 46.9°F8.3°C 90% 11.0 mph N17.7 kmh N 12.0 mph19.3 kmh 30.02 in1016.6 mb 0.00 in0.0 mm 0.00 in0.0 mm 0.00 in0.0 mm
12:35 AM 49.7°F9.8°C 46.9°F8.3°C 90% 11.0 mph N17.7 kmh N 12.0 mph19.3 kmh 30.02 in1016.6 mb 0.00 in0.0 mm 0.00 in0.0 mm 0.00 in0.0 mm
12:34 AM 49.7°F9.8°C 46.9°F8.3°C 90% 11.0 mph N17.7 kmh N 11.0 mph17.7 kmh 30.02 in1016.6 mb 0.00 in0.0 mm 0.00 in0.0 mm 0.00 in0.0 mm
12:33 AM 49.7°F9.8°C 46.9°F8.3°C 90% 11.0 mph N17.7 kmh N 13.0 mph20.9 kmh 30.02 in1016.6 mb 0.00 in0.0 mm 0.00 in0.0 mm 0.00 in0.0 mm
12:32 AM 49.7°F9.8°C 46.9°F8.3°C 90% 11.0 mph N17.7 kmh N 13.0 mph20.9 kmh 30.01 in1016.3 mb 0.00 in0.0 mm 0.00 in0.0 mm 0.00 in0.0 mm
12:31 AM 49.7°F9.8°C 46.9°F8.3°C 90% 11.0 mph N17.7 kmh N 13.0 mph20.9 kmh 30.01 in1016.3 mb 0.00 in0.0 mm 0.00 in0.0 mm 0.00 in0.0 mm
12:30 AM 49.7°F9.8°C 46.9°F8.3°C 90% 11.0 mph N17.7 kmh N 13.0 mph20.9 kmh 30.01 in1016.3 mb 0.00 in0.0 mm 0.00 in0.0 mm 0.00 in0.0 mm
12:29 AM 49.8°F9.9°C 47.0°F8.3°C 90% 11.0 mph N17.7 kmh N 13.0 mph20.9 kmh 30.01 in1016.3 mb 0.00 in0.0 mm 0.00 in0.0 mm 0.00 in0.0 mm
12:28 AM 49.7°F9.8°C 46.9°F8.3°C 90% 11.0 mph N17.7 kmh N 13.0 mph20.9 kmh 30.01 in1016.3 mb 0.00 in0.0 mm 0.00 in0.0 mm 0.00 in0.0 mm
12:27 AM 49.8°F9.9°C 47.0°F8.3°C 90% 11.0 mph N17.7 kmh N 13.0 mph20.9 kmh 30.01 in1016.3 mb 0.00 in0.0 mm 0.00 in0.0 mm 0.00 in0.0 mm
12:26 AM 49.8°F9.9°C 47.0°F8.3°C 90% 11.0 mph N17.7 kmh N 13.0 mph20.9 kmh 30.01 in1016.3 mb 0.00 in0.0 mm 0.00 in0.0 mm 0.00 in0.0 mm
12:25 AM 49.8°F9.9°C 47.0°F8.3°C 90% 11.0 mph N17.7 kmh N 13.0 mph20.9 kmh 30.01 in1016.3 mb 0.00 in0.0 mm 0.00 in0.0 mm 0.00 in0.0 mm
12:24 AM 49.8°F9.9°C 47.0°F8.3°C 90% 11.0 mph N17.7 kmh N 13.0 mph20.9 kmh 30.01 in1016.3 mb 0.00 in0.0 mm 0.00 in0.0 mm 0.00 in0.0 mm
12:23 AM 49.7°F9.8°C 46.9°F8.3°C 90% 11.0 mph N17.7 kmh N 13.0 mph20.9 kmh 30.01 in1016.3 mb 0.00 in0.0 mm 0.00 in0.0 mm 0.00 in0.0 mm
12:22 AM 49.8°F9.9°C 47.0°F8.3°C 90% 11.0 mph N17.7 kmh N 13.0 mph20.9 kmh 30.01 in1016.3 mb 0.00 in0.0 mm 0.00 in0.0 mm 0.00 in0.0 mm
12:21 AM 49.7°F9.8°C 46.9°F8.3°C 90% 11.0 mph N17.7 kmh N 12.0 mph19.3 kmh 30.01 in1016.3 mb 0.00 in0.0 mm 0.00 in0.0 mm 0.00 in0.0 mm
12:20 AM 49.7°F9.8°C 46.9°F8.3°C 90% 10.0 mph N16.1 kmh N 11.0 mph17.7 kmh 30.00 in1015.9 mb 0.00 in0.0 mm 0.00 in0.0 mm 0.00 in0.0 mm
12:19 AM 49.7°F9.8°C 46.9°F8.3°C 90% 10.0 mph N16.1 kmh N 11.0 mph17.7 kmh 30.01 in1016.3 mb 0.00 in0.0 mm 0.00 in0.0 mm 0.00 in0.0 mm
12:18 AM 49.7°F9.8°C 46.9°F8.3°C 90% 10.0 mph N16.1 kmh N 11.0 mph17.7 kmh 30.01 in1016.3 mb 0.00 in0.0 mm 0.00 in0.0 mm 0.00 in0.0 mm
12:17 AM 49.7°F9.8°C 46.9°F8.3°C 90% 10.0 mph N16.1 kmh N 11.0 mph17.7 kmh 30.01 in1016.3 mb 0.00 in0.0 mm 0.00 in0.0 mm 0.00 in0.0 mm
12:16 AM 49.7°F9.8°C 46.9°F8.3°C 90% 10.0 mph N16.1 kmh N 11.0 mph17.7 kmh 30.01 in1016.3 mb 0.00 in0.0 mm 0.00 in0.0 mm 0.00 in0.0 mm
12:15 AM 49.7°F9.8°C 46.9°F8.3°C 90% 10.0 mph N16.1 kmh N 11.0 mph17.7 kmh 30.01 in1016.3 mb 0.00 in0.0 mm 0.00 in0.0 mm 0.00 in0.0 mm
12:14 AM 49.7°F9.8°C 46.9°F8.3°C 90% 10.0 mph N16.1 kmh N 11.0 mph17.7 kmh 30.01 in1016.3 mb 0.00 in0.0 mm 0.00 in0.0 mm 0.00 in0.0 mm
12:13 AM 49.7°F9.8°C 46.9°F8.3°C 90% 10.0 mph N16.1 kmh N 11.0 mph17.7 kmh 30.01 in1016.3 mb 0.00 in0.0 mm 0.00 in0.0 mm 0.00 in0.0 mm
12:12 AM 49.7°F9.8°C 46.9°F8.3°C 90% 10.0 mph N16.1 kmh N 11.0 mph17.7 kmh 30.01 in1016.3 mb 0.00 in0.0 mm 0.00 in0.0 mm 0.00 in0.0 mm
12:11 AM 49.7°F9.8°C 46.9°F8.3°C 90% 10.0 mph N16.1 kmh N 11.0 mph17.7 kmh 30.01 in1016.3 mb 0.00 in0.0 mm 0.00 in0.0 mm 0.00 in0.0 mm
12:10 AM 49.7°F9.8°C 46.9°F8.3°C 90% 10.0 mph N16.1 kmh N 11.0 mph17.7 kmh 30.01 in1016.3 mb 0.00 in0.0 mm 0.00 in0.0 mm 0.00 in0.0 mm
12:09 AM 49.7°F9.8°C 46.9°F8.3°C 90% 10.0 mph N16.1 kmh N 11.0 mph17.7 kmh 30.01 in1016.3 mb 0.00 in0.0 mm 0.00 in0.0 mm 0.00 in0.0 mm
12:08 AM 49.7°F9.8°C 46.9°F8.3°C 90% 10.0 mph N16.1 kmh N 11.0 mph17.7 kmh 30.01 in1016.3 mb 0.00 in0.0 mm 0.00 in0.0 mm 0.00 in0.0 mm
12:07 AM 49.7°F9.8°C 46.9°F8.3°C 90% 10.0 mph N16.1 kmh N 11.0 mph17.7 kmh 30.01 in1016.3 mb 0.00 in0.0 mm 0.00 in0.0 mm 0.00 in0.0 mm
12:06 AM 49.7°F9.8°C 46.9°F8.3°C 90% 10.0 mph N16.1 kmh N 12.0 mph19.3 kmh 30.02 in1016.6 mb 0.00 in0.0 mm 0.00 in0.0 mm 0.00 in0.0 mm
12:05 AM 49.7°F9.8°C 46.9°F8.3°C 90% 11.0 mph N17.7 kmh N 12.0 mph19.3 kmh 30.02 in1016.6 mb 0.00 in0.0 mm 0.00 in0.0 mm 0.00 in0.0 mm
12:04 AM 49.6°F9.8°C 46.8°F8.2°C 90% 11.0 mph N17.7 kmh N 12.0 mph19.3 kmh 30.02 in1016.6 mb 0.00 in0.0 mm 0.00 in0.0 mm 0.00 in0.0 mm
12:03 AM 49.6°F9.8°C 46.8°F8.2°C 90% 11.0 mph N17.7 kmh N 12.0 mph19.3 kmh 30.02 in1016.6 mb 0.00 in0.0 mm 0.00 in0.0 mm 0.00 in0.0 mm
12:02 AM 49.6°F9.8°C 46.8°F8.2°C 90% 11.0 mph N17.7 kmh N 12.0 mph19.3 kmh 30.02 in1016.6 mb 0.00 in0.0 mm 0.00 in0.0 mm 0.00 in0.0 mm
12:01 AM 49.6°F9.8°C 46.8°F8.2°C 90% 11.0 mph N17.7 kmh N 12.0 mph19.3 kmh 30.01 in1016.3 mb 0.00 in0.0 mm 0.00 in0.0 mm 0.00 in0.0 mm
12:00 AM 49.6°F9.8°C 46.8°F8.2°C 90% 11.0 mph N17.7 kmh N 12.0 mph19.3 kmh 30.01 in1016.3 mb 0.00 in0.0 mm 0.00 in0.0 mm 0.00 in0.0 mm